createdAt,value
2022-12-07T00:01:12.768Z,13.93
2022-12-07T00:06:06.775Z,13.80
2022-12-07T00:11:24.647Z,12.03
2022-12-07T00:16:19.665Z,12.93
2022-12-07T00:21:17.787Z,12.93
2022-12-07T00:26:22.313Z,13.27
2022-12-07T00:31:15.715Z,12.43
2022-12-07T00:36:10.368Z,13.93
2022-12-07T00:41:07.489Z,13.57
2022-12-07T00:45:59.510Z,13.33
2022-12-07T00:50:52.337Z,13.13
2022-12-07T00:55:44.864Z,16.07
2022-12-07T01:00:38.451Z,13.10
2022-12-07T01:05:30.457Z,14.27
2022-12-07T01:10:23.515Z,12.33
2022-12-07T01:15:15.631Z,15.10
2022-12-07T01:20:08.726Z,12.57
2022-12-07T01:25:00.695Z,14.93
2022-12-07T01:29:52.624Z,14.80
2022-12-07T01:34:44.794Z,14.13
2022-12-07T01:39:36.777Z,14.47
2022-12-07T01:44:34.127Z,13.47
2022-12-07T01:49:43.030Z,15.17
2022-12-07T01:54:36.124Z,14.63
2022-12-07T01:59:28.518Z,11.70
2022-12-07T02:04:22.239Z,12.37
2022-12-07T02:09:25.523Z,16.00
2022-12-07T02:14:17.616Z,13.07
2022-12-07T02:19:12.341Z,13.57
2022-12-07T02:24:25.883Z,13.17
2022-12-07T02:29:41.627Z,11.27
2022-12-07T02:34:57.608Z,11.77
2022-12-07T02:39:56.487Z,11.50
2022-12-07T02:44:49.430Z,10.40
2022-12-07T02:49:41.789Z,10.37
2022-12-07T02:54:33.839Z,10.20
2022-12-07T02:59:41.732Z,12.60
2022-12-07T03:04:56.096Z,12.77
2022-12-07T03:10:33.228Z,12.80
2022-12-07T03:15:51.148Z,13.77
2022-12-07T03:20:45.413Z,12.87
2022-12-07T03:25:43.497Z,13.67
2022-12-07T03:30:52.504Z,12.30
2022-12-07T03:35:54.962Z,15.03
2022-12-07T03:40:56.035Z,17.00
2022-12-07T03:46:06.446Z,17.53
2022-12-07T03:51:24.299Z,16.37
2022-12-07T03:56:16.728Z,13.83
2022-12-07T04:01:08.709Z,16.53
2022-12-07T04:06:01.060Z,12.80
2022-12-07T04:10:54.403Z,13.40
2022-12-07T04:15:46.454Z,14.90
2022-12-07T04:20:38.423Z,13.27
2022-12-07T04:25:30.407Z,16.30
2022-12-07T04:30:22.362Z,14.47
2022-12-07T04:35:14.367Z,14.73
2022-12-07T04:40:08.828Z,19.67
2022-12-07T04:45:00.829Z,17.27
2022-12-07T04:49:52.797Z,21.33
2022-12-07T04:54:44.751Z,22.37
2022-12-07T04:59:39.873Z,22.40
2022-12-07T05:04:35.887Z,25.77
2022-12-07T05:09:27.883Z,26.20
2022-12-07T05:14:21.438Z,21.57
2022-12-07T05:19:13.914Z,24.60
2022-12-07T05:24:06.975Z,22.13
2022-12-07T05:28:59.234Z,21.83
2022-12-07T05:33:51.357Z,18.93
2022-12-07T05:38:43.455Z,15.93
2022-12-07T05:43:35.448Z,14.40
2022-12-07T05:48:27.844Z,11.37
2022-12-07T05:53:23.177Z,10.10
2022-12-07T05:58:34.735Z,8.83
2022-12-07T06:03:26.840Z,9.60
2022-12-07T06:08:18.939Z,8.80
2022-12-07T06:13:10.890Z,10.77
2022-12-07T06:18:02.896Z,8.47
2022-12-07T06:22:54.933Z,9.00
2022-12-07T06:27:46.957Z,8.27
2022-12-07T06:32:38.959Z,7.43
2022-12-07T06:37:30.921Z,5.37
2022-12-07T06:42:23.141Z,5.00
2022-12-07T06:52:27.186Z,6.87
2022-12-07T06:57:19.359Z,7.23
2022-12-07T07:02:11.375Z,5.37
2022-12-07T07:07:03.307Z,6.13
2022-12-07T07:11:55.593Z,6.40
2022-12-07T07:16:47.711Z,6.03
2022-12-07T07:21:40.452Z,7.00
2022-12-07T07:26:33.059Z,6.87
2022-12-07T07:31:25.294Z,5.43
2022-12-07T07:36:17.269Z,7.33
2022-12-07T07:41:09.252Z,7.17
2022-12-07T07:46:01.351Z,6.43
2022-12-07T07:50:53.404Z,7.60
2022-12-07T07:55:53.512Z,6.00
2022-12-07T08:00:45.526Z,5.97
2022-12-07T08:05:38.717Z,8.90
2022-12-07T08:10:33.009Z,7.90
2022-12-07T08:15:26.188Z,6.73
2022-12-07T08:20:18.229Z,8.10
2022-12-07T08:25:10.172Z,7.37
2022-12-07T08:30:02.823Z,7.23
2022-12-07T08:34:55.071Z,8.03
2022-12-07T08:39:47.298Z,12.23
2022-12-07T08:44:39.259Z,8.27
2022-12-07T08:49:44.621Z,11.20
2022-12-07T08:54:39.351Z,8.37
2022-12-07T08:59:32.112Z,8.60
2022-12-07T09:04:24.104Z,9.03
2022-12-07T09:09:16.214Z,8.30
2022-12-07T09:14:08.534Z,10.00
2022-12-07T09:19:00.630Z,5.97
2022-12-07T09:23:52.568Z,6.07
2022-12-07T09:28:44.579Z,6.60
2022-12-07T09:33:37.025Z,5.60
2022-12-07T09:38:30.671Z,8.87
2022-12-07T09:43:27.119Z,5.70
2022-12-07T09:48:40.197Z,6.90
2022-12-07T09:53:37.190Z,6.50
2022-12-07T09:58:30.924Z,5.60
2022-12-07T10:03:23.069Z,4.33
2022-12-07T10:08:18.204Z,3.83
2022-12-07T10:13:12.496Z,5.10
2022-12-07T10:18:04.527Z,5.77
2022-12-07T10:23:03.297Z,4.77
2022-12-07T10:28:13.991Z,5.47
2022-12-07T10:33:29.413Z,4.73
2022-12-07T10:38:21.475Z,5.13
2022-12-07T10:43:13.462Z,4.57
2022-12-07T10:48:12.892Z,5.57
2022-12-07T10:53:22.999Z,6.63
2022-12-07T10:58:25.598Z,5.50
2022-12-07T11:03:39.086Z,9.47
2022-12-07T11:08:48.913Z,5.10
2022-12-07T11:13:48.921Z,8.03
2022-12-07T11:18:58.352Z,6.03
2022-12-07T11:24:06.537Z,6.60
2022-12-07T11:29:28.785Z,5.30
2022-12-07T11:34:29.646Z,7.67
2022-12-07T11:39:33.156Z,5.30
2022-12-07T11:44:43.759Z,3.17
2022-12-07T11:49:49.871Z,5.27
2022-12-07T11:54:44.719Z,7.00
2022-12-07T11:59:51.264Z,7.40
2022-12-07T12:05:22.655Z,8.87
2022-12-07T12:10:47.431Z,10.00
2022-12-07T12:16:11.533Z,9.20
2022-12-07T12:21:20.859Z,6.97
2022-12-07T12:26:23.357Z,9.67
2022-12-07T12:31:29.645Z,14.00
2022-12-07T12:36:25.076Z,14.53
2022-12-07T12:41:42.434Z,11.23
2022-12-07T12:46:34.836Z,10.30
2022-12-07T12:51:41.535Z,7.23
2022-12-07T12:56:40.510Z,4.23
2022-12-07T13:01:42.624Z,4.83
2022-12-07T13:06:39.146Z,2.57
2022-12-07T13:11:36.254Z,2.43
2022-12-07T13:16:39.458Z,3.50
2022-12-07T13:21:31.388Z,1.30
2022-12-07T13:26:37.784Z,2.80
2022-12-07T13:31:44.993Z,1.37
2022-12-07T13:36:40.902Z,1.47
2022-12-07T13:41:33.393Z,1.83
2022-12-07T13:46:33.512Z,3.23
2022-12-07T13:51:27.674Z,4.03
2022-12-07T13:56:23.112Z,3.03
2022-12-07T14:01:15.749Z,3.57
2022-12-07T14:06:21.806Z,4.83
2022-12-07T14:11:22.838Z,5.90
2022-12-07T14:16:28.670Z,8.30
2022-12-07T14:21:27.261Z,6.90
2022-12-07T14:26:22.370Z,9.27
2022-12-07T14:31:24.872Z,7.20
2022-12-07T14:36:21.679Z,21.90
2022-12-07T14:41:43.880Z,11.20
2022-12-07T14:46:35.886Z,9.17
2022-12-07T14:56:39.980Z,16.33
2022-12-07T15:01:32.044Z,13.53
2022-12-07T15:06:23.984Z,10.07
2022-12-07T15:11:17.593Z,6.97
2022-12-07T15:16:13.637Z,7.77
2022-12-07T15:21:05.767Z,10.10
2022-12-07T15:25:57.831Z,9.27
2022-12-07T15:30:49.771Z,9.93
2022-12-07T15:35:46.439Z,9.97
2022-12-07T15:40:38.496Z,8.10
2022-12-07T15:45:30.635Z,14.50
2022-12-07T15:50:23.368Z,6.13
2022-12-07T15:55:15.390Z,11.50
2022-12-07T16:00:11.143Z,13.50
2022-12-07T16:05:03.626Z,11.47
2022-12-07T16:09:57.055Z,14.30
2022-12-07T16:14:50.253Z,10.50
2022-12-07T16:19:42.326Z,10.33
2022-12-07T16:24:34.422Z,13.27
2022-12-07T16:29:27.074Z,24.13
2022-12-07T16:34:19.806Z,19.87
2022-12-07T16:39:11.957Z,19.83
2022-12-07T16:44:06.545Z,16.53
2022-12-07T16:48:58.546Z,15.57
2022-12-07T16:53:53.900Z,9.87
2022-12-07T16:58:47.497Z,6.27
2022-12-07T17:03:39.621Z,5.40
2022-12-07T17:08:31.691Z,7.17
2022-12-07T17:13:42.413Z,4.27
2022-12-07T17:18:37.188Z,6.50
2022-12-07T17:23:29.315Z,5.73
2022-12-07T17:28:21.472Z,8.83
2022-12-07T17:33:13.845Z,5.23
2022-12-07T17:38:05.870Z,3.33
2022-12-07T17:42:57.900Z,5.13
2022-12-07T17:47:49.850Z,4.90
2022-12-07T17:53:00.076Z,3.67
2022-12-07T17:57:52.144Z,3.07
2022-12-07T18:02:44.265Z,5.13
2022-12-07T18:07:36.268Z,5.50
2022-12-07T18:12:28.569Z,3.10
2022-12-07T18:17:20.558Z,3.27
2022-12-07T18:22:12.503Z,3.80
2022-12-07T18:27:06.310Z,3.60
2022-12-07T18:31:59.756Z,3.93
2022-12-07T18:36:51.822Z,6.73
2022-12-07T18:41:44.088Z,4.47
2022-12-07T18:46:36.415Z,4.53
2022-12-07T18:51:32.362Z,4.93
2022-12-07T18:56:26.219Z,3.47
2022-12-07T19:01:18.240Z,3.80
2022-12-07T19:06:10.380Z,3.57
2022-12-07T19:11:24.179Z,2.70
2022-12-07T19:16:16.445Z,5.73
2022-12-07T19:21:08.844Z,3.63
2022-12-07T19:26:00.884Z,4.33
2022-12-07T19:30:52.860Z,3.70
2022-12-07T19:35:46.018Z,2.60
2022-12-07T19:40:38.018Z,6.13
2022-12-07T19:45:32.793Z,6.77
2022-12-07T19:50:25.030Z,7.33
2022-12-07T19:55:17.143Z,6.57
2022-12-07T20:00:10.321Z,8.30
2022-12-07T20:05:06.197Z,7.10
2022-12-07T20:09:59.879Z,11.83
2022-12-07T20:14:52.017Z,10.20
2022-12-07T20:19:44.105Z,10.20
2022-12-07T20:24:36.489Z,6.87
2022-12-07T20:29:28.768Z,10.23
2022-12-07T20:34:20.944Z,4.00
2022-12-07T20:39:13.342Z,3.83
2022-12-07T20:44:05.705Z,10.63
2022-12-07T20:49:01.669Z,5.20
2022-12-07T20:53:53.750Z,5.73
2022-12-07T20:58:47.048Z,5.47
2022-12-07T21:03:39.064Z,6.03
2022-12-07T21:08:31.136Z,6.90
2022-12-07T21:13:23.243Z,6.17
2022-12-07T21:18:15.182Z,9.43
2022-12-07T21:23:07.287Z,7.87
2022-12-07T21:27:59.594Z,7.47
2022-12-07T21:32:51.562Z,7.53
2022-12-07T21:37:43.564Z,12.43
2022-12-07T21:42:35.573Z,8.07
2022-12-07T21:47:27.518Z,12.40
2022-12-07T21:52:19.529Z,8.60
2022-12-07T21:57:11.491Z,9.60
2022-12-07T22:02:03.555Z,8.17
2022-12-07T22:06:57.407Z,8.17
2022-12-07T22:11:49.704Z,13.97
2022-12-07T22:16:41.796Z,9.00
2022-12-07T22:21:34.560Z,9.10
2022-12-07T22:26:27.400Z,10.53
2022-12-07T22:31:20.729Z,9.97
2022-12-07T22:36:13.661Z,9.97
2022-12-07T22:41:12.972Z,10.70
2022-12-07T22:46:05.714Z,8.77
2022-12-07T22:50:57.760Z,7.77
2022-12-07T22:55:50.661Z,8.00
2022-12-07T23:00:44.018Z,6.70
2022-12-07T23:05:42.865Z,8.00
2022-12-07T23:10:35.088Z,7.73
2022-12-07T23:15:27.056Z,9.00
2022-12-07T23:20:20.320Z,5.43
2022-12-07T23:25:12.283Z,5.47
2022-12-07T23:30:07.418Z,6.23
2022-12-07T23:34:59.350Z,7.13
2022-12-07T23:39:51.364Z,5.10
2022-12-07T23:44:43.356Z,6.40
2022-12-07T23:49:35.337Z,5.90
2022-12-07T23:54:27.325Z,6.93
2022-12-07T23:59:19.355Z,6.03
